createdAt,value
2023-02-18T00:05:31.659Z,46.28
2023-02-18T00:12:33.184Z,42.00
2023-02-18T00:19:34.756Z,30.85
2023-02-18T00:26:36.439Z,31.35
2023-02-18T00:33:38.141Z,37.63
2023-02-18T00:40:40.258Z,43.30
2023-02-18T00:47:41.937Z,47.95
2023-02-18T00:54:43.594Z,50.45
2023-02-18T01:01:45.611Z,41.60
2023-02-18T01:08:47.188Z,42.80
2023-02-18T01:15:48.913Z,48.58
2023-02-18T01:22:50.573Z,48.20
2023-02-18T01:29:52.270Z,42.67
2023-02-18T01:36:53.937Z,46.72
2023-02-18T01:44:32.971Z,48.83
2023-02-18T01:51:39.843Z,49.80
2023-02-18T01:58:41.461Z,50.85
2023-02-18T02:05:43.107Z,76.82
2023-02-18T02:12:51.467Z,78.22
2023-02-18T02:20:11.974Z,78.20
2023-02-18T02:27:21.490Z,89.53
2023-02-18T02:34:31.901Z,90.63
2023-02-18T02:41:46.395Z,103.10
2023-02-18T02:49:08.904Z,111.97
2023-02-18T02:56:18.139Z,66.45
2023-02-18T03:03:39.023Z,34.97
2023-02-18T03:11:09.899Z,35.63
2023-02-18T03:18:20.124Z,28.40
2023-02-18T03:25:22.113Z,27.75
2023-02-18T03:32:24.204Z,22.60
2023-02-18T03:39:27.577Z,31.13
2023-02-18T03:46:29.277Z,41.42
2023-02-18T03:53:31.424Z,44.42
2023-02-18T04:00:33.135Z,34.17
2023-02-18T04:07:35.030Z,31.63
2023-02-18T04:14:36.607Z,45.35
2023-02-18T04:21:38.198Z,45.17
2023-02-18T04:28:40.085Z,52.55
2023-02-18T04:35:42.126Z,49.30
2023-02-18T04:42:43.784Z,56.03
2023-02-18T04:49:45.354Z,58.38
2023-02-18T04:56:46.956Z,52.20
2023-02-18T05:03:48.593Z,22.67
2023-02-18T05:10:50.328Z,41.05
2023-02-18T05:17:51.956Z,81.25
2023-02-18T05:24:53.502Z,87.90
2023-02-18T05:31:55.300Z,123.63
2023-02-18T05:38:57.001Z,63.28
2023-02-18T05:45:58.537Z,195.40
2023-02-18T05:53:00.274Z,36.97
2023-02-18T06:00:02.017Z,49.38
2023-02-18T06:07:06.741Z,136.50
2023-02-18T06:14:08.344Z,61.25
2023-02-18T06:21:09.920Z,78.57
2023-02-18T06:28:11.518Z,50.38
2023-02-18T06:35:13.204Z,172.18
2023-02-18T06:42:14.775Z,67.38
2023-02-18T06:49:16.353Z,31.50
2023-02-18T06:56:18.070Z,17.23
2023-02-18T07:03:19.773Z,22.45
2023-02-18T07:10:21.452Z,26.63
2023-02-18T07:17:23.034Z,34.78
2023-02-18T07:24:24.652Z,29.67
2023-02-18T07:31:26.307Z,29.27
2023-02-18T07:38:28.242Z,27.05
2023-02-18T07:45:29.836Z,29.17
2023-02-18T07:52:31.531Z,34.45
2023-02-18T07:59:33.212Z,39.75
2023-02-18T08:06:42.718Z,39.05
2023-02-18T08:13:46.916Z,46.03
2023-02-18T08:20:48.860Z,62.40
2023-02-18T08:27:50.390Z,57.67
2023-02-18T08:34:51.930Z,60.33
2023-02-18T08:41:53.493Z,67.43
2023-02-18T08:48:55.055Z,70.20
2023-02-18T08:55:56.576Z,74.20
2023-02-18T09:02:58.217Z,67.68
2023-02-18T09:09:59.874Z,71.60
2023-02-18T09:17:01.706Z,68.07
2023-02-18T09:24:03.565Z,74.32
2023-02-18T09:31:09.950Z,62.47
2023-02-18T09:38:12.489Z,77.40
2023-02-18T09:45:14.156Z,65.38
2023-02-18T09:52:29.914Z,77.90
2023-02-18T09:59:31.618Z,75.68
2023-02-18T10:06:34.094Z,62.72
2023-02-18T10:13:35.709Z,66.05
2023-02-18T10:20:37.282Z,66.22
2023-02-18T10:27:39.005Z,73.75
2023-02-18T10:34:47.623Z,74.38
2023-02-18T10:42:08.465Z,70.07
2023-02-18T10:49:29.724Z,67.82
2023-02-18T10:56:48.670Z,82.63
2023-02-18T11:03:55.176Z,76.40
2023-02-18T11:10:57.116Z,88.90
2023-02-18T11:18:11.526Z,105.90
2023-02-18T11:25:33.081Z,97.80
2023-02-18T11:32:35.408Z,100.97
2023-02-18T11:39:36.962Z,101.82
2023-02-18T11:46:38.562Z,105.97
2023-02-18T11:54:01.302Z,103.43
2023-02-18T12:01:02.920Z,103.90
2023-02-18T12:08:15.459Z,95.35
2023-02-18T12:15:22.185Z,98.28
2023-02-18T12:22:43.011Z,95.35
2023-02-18T12:30:09.006Z,111.00
2023-02-18T12:37:46.311Z,95.30
2023-02-18T12:45:06.457Z,95.50
2023-02-18T12:52:26.089Z,76.40
2023-02-18T13:00:17.115Z,104.50
2023-02-18T13:07:33.576Z,144.13
2023-02-18T13:14:57.426Z,57.78
2023-02-18T13:22:00.557Z,68.63
2023-02-18T13:29:14.102Z,17.50
2023-02-18T13:36:22.079Z,52.25
2023-02-18T13:43:23.540Z,15.50
2023-02-18T13:50:29.157Z,63.50
2023-02-18T13:57:31.978Z,72.50
2023-02-18T14:04:36.489Z,80.97
2023-02-18T14:11:48.024Z,86.95
2023-02-18T14:18:57.881Z,31.63
2023-02-18T14:26:14.867Z,7.93
2023-02-18T14:33:16.538Z,9.45
2023-02-18T14:40:26.524Z,10.10
2023-02-18T14:47:41.844Z,7.18
2023-02-18T14:54:44.351Z,6.03
2023-02-18T15:01:46.758Z,7.32
2023-02-18T15:08:48.389Z,5.45
2023-02-18T15:15:52.241Z,7.45
2023-02-18T15:22:53.858Z,8.00
2023-02-18T15:30:20.162Z,10.80
2023-02-18T15:37:21.779Z,13.00
2023-02-18T15:44:24.836Z,6.25
2023-02-18T15:51:28.673Z,3.13
2023-02-18T15:58:31.430Z,4.95
2023-02-18T16:05:37.284Z,9.52
2023-02-18T16:12:39.241Z,3.60
2023-02-18T16:20:02.905Z,11.73
2023-02-18T16:27:07.494Z,4.38
2023-02-18T16:34:09.294Z,4.07
2023-02-18T16:41:14.314Z,4.97
2023-02-18T16:48:37.276Z,2.97
2023-02-18T16:55:38.899Z,9.10
2023-02-18T17:02:40.579Z,4.78
2023-02-18T17:09:42.127Z,5.63
2023-02-18T17:16:44.832Z,5.00
2023-02-18T17:23:46.549Z,4.22
2023-02-18T17:30:56.562Z,7.70
2023-02-18T17:37:58.369Z,5.03
2023-02-18T17:45:01.382Z,5.30
2023-02-18T17:52:03.103Z,6.63
2023-02-18T17:59:04.686Z,6.38
2023-02-18T18:06:09.990Z,11.20
2023-02-18T18:13:19.290Z,9.27
2023-02-18T18:20:20.930Z,4.38
2023-02-18T18:27:22.528Z,6.35
2023-02-18T18:34:24.102Z,6.15
2023-02-18T18:41:25.616Z,6.40
2023-02-18T18:48:27.418Z,14.80
2023-02-18T18:55:33.851Z,27.63
2023-02-18T19:02:35.524Z,10.63
2023-02-18T19:09:37.049Z,7.25
2023-02-18T19:16:39.103Z,7.28
2023-02-18T19:23:40.752Z,6.90
2023-02-18T19:30:42.526Z,6.85
2023-02-18T19:37:44.307Z,19.52
2023-02-18T19:44:45.921Z,90.47
2023-02-18T19:51:47.471Z,7.82
2023-02-18T19:58:48.982Z,4.78
2023-02-18T20:05:50.531Z,8.45
2023-02-18T20:12:53.353Z,7.85
2023-02-18T20:19:54.987Z,11.05
2023-02-18T20:26:57.471Z,11.27
2023-02-18T20:33:59.063Z,7.80
2023-02-18T20:41:05.264Z,20.23
2023-02-18T20:48:06.824Z,12.25
2023-02-18T20:55:08.496Z,9.55
2023-02-18T21:02:12.613Z,9.88
2023-02-18T21:09:14.772Z,7.50
2023-02-18T21:16:16.640Z,8.52
2023-02-18T21:23:18.244Z,6.38
2023-02-18T21:30:19.930Z,8.55
2023-02-18T21:37:21.618Z,8.95
2023-02-18T21:44:30.038Z,9.68
2023-02-18T21:51:57.979Z,13.15
2023-02-18T21:58:59.623Z,9.90
2023-02-18T22:06:01.152Z,9.73
2023-02-18T22:13:02.733Z,10.65
2023-02-18T22:20:08.255Z,11.10
2023-02-18T22:27:09.982Z,8.95
2023-02-18T22:34:11.517Z,12.45
2023-02-18T22:41:13.616Z,8.27
2023-02-18T22:48:15.177Z,8.07
2023-02-18T22:55:16.713Z,7.68
2023-02-18T23:02:19.759Z,5.97
2023-02-18T23:09:23.731Z,6.82
2023-02-18T23:16:25.336Z,6.28
2023-02-18T23:23:26.897Z,8.75
2023-02-18T23:30:28.531Z,6.35
2023-02-18T23:37:56.334Z,9.27
2023-02-18T23:44:57.894Z,8.15
2023-02-18T23:51:59.745Z,15.98
2023-02-18T23:59:04.462Z,11.60
